Time;durP1;ratioP1;P1;durP2;ratioP2;P2;SDS_P1;SDS_P2;PMS_P1;PMS_P2;Temp;Humidity;BMP_temperature;BMP_pressure;BME280_temperature;BME280_humidity;BME280_pressure;Samples;Min_cycle;Max_cycle;Signal;HPM_P1;HPM_P2
2021/06/13 00:04:00;;;;;;;10.23;3.08;;;;;;;12.68;80.45;100639.62;5011554;57;1138664;-80
2021/06/13 00:09:07;;;;;;;1.55;1.40;;;;;;;12.60;80.55;100640.77;5011500;57;1140852;-79
2021/06/13 00:14:13;;;;;;;7.00;1.77;;;;;;;12.54;80.45;100650.55;5011176;57;1138780;-80
2021/06/13 00:19:20;;;;;;;13.50;2.87;;;;;;;12.51;80.54;100660.12;5011417;57;1138748;-80
2021/06/13 00:24:26;;;;;;;2.43;1.73;;;;;;;12.46;80.43;100651.69;5011216;57;1140803;-79
2021/06/13 00:29:31;;;;;;;10.08;2.15;;;;;;;12.43;80.54;100653.27;5011030;57;1138813;-79
2021/06/13 00:34:37;;;;;;;5.73;2.20;;;;;;;12.39;80.49;100659.30;5011181;57;1141092;-81
2021/06/13 00:39:42;;;;;;;8.43;2.33;;;;;;;12.35;80.59;100658.38;5011159;57;1138734;-78
2021/06/13 00:44:49;;;;;;;2.43;2.13;;;;;;;12.30;80.80;100653.45;5011201;57;1139134;-79
2021/06/13 00:49:55;;;;;;;4.67;1.98;;;;;;;12.27;81.18;100662.97;5011429;57;1138815;-80
2021/06/13 00:55:01;;;;;;;6.30;1.72;;;;;;;12.26;80.96;100671.89;5011344;57;1138730;-78
2021/06/13 01:00:09;;;;;;;6.43;1.90;;;;;;;12.23;80.93;100669.48;5010996;57;1138784;-81
2021/06/13 01:05:16;;;;;;;8.63;2.40;;;;;;;12.25;80.90;100668.88;5011533;57;1138424;-78
2021/06/13 01:10:48;;;;;;;6.27;1.77;;;;;;;12.24;80.86;100668.52;5011190;57;1138352;-79
2021/06/13 01:16:19;;;;;;;1.90;1.50;;;;;;;12.22;81.00;100669.97;5011251;57;1138460;-78
2021/06/13 01:21:35;;;;;;;7.70;1.90;;;;;;;12.20;81.04;100670.61;5011297;57;1138217;-81
2021/06/13 01:27:16;;;;;;;4.93;1.73;;;;;;;12.14;81.02;100675.08;5011311;57;1138619;-78
2021/06/13 01:32:29;;;;;;;10.00;2.20;;;;;;;12.10;81.02;100673.63;5011056;58;1138772;-81
2021/06/13 01:37:38;;;;;;;;;;;;;;;12.06;81.02;100670.89;5014660;57;1140386;-78
2021/06/13 01:42:51;;;;;;;5.97;1.47;;;;;;;12.02;81.03;100677.41;5023860;57;975710;-81
2021/06/13 01:47:58;;;;;;;4.15;2.08;;;;;;;11.98;81.29;100671.50;4992611;56;1136363;-79
2021/06/13 01:53:12;;;;;;;2.73;1.97;;;;;;;11.96;81.34;100673.91;4992610;56;1138868;-78
2021/06/13 01:58:21;;;;;;;13.25;2.08;;;;;;;11.97;81.60;100672.95;4993023;56;1138453;-81
2021/06/13 02:03:47;;;;;;;6.37;1.80;;;;;;;11.91;81.54;100678.28;4992946;56;1140538;-80
2021/06/13 02:09:03;;;;;;;7.28;2.10;;;;;;;11.90;81.56;100681.05;4993378;56;1138664;-80
2021/06/13 02:14:12;;;;;;;5.47;2.13;;;;;;;11.81;81.52;100689.23;4993105;56;1138762;-80
2021/06/13 02:19:25;;;;;;;3.87;1.50;;;;;;;11.81;81.52;100689.23;4993243;56;1138732;-79
2021/06/13 02:24:37;;;;;;;7.37;1.97;;;;;;;11.78;81.82;100697.42;4993560;56;1139038;-82
2021/06/13 02:29:45;;;;;;;2.57;1.50;;;;;;;11.69;81.54;100694.16;4993159;56;1138516;-80
2021/06/13 02:34:52;;;;;;;8.23;2.37;;;;;;;11.62;81.75;100692.47;4993076;56;1146117;-78
2021/06/13 02:40:00;;;;;;;8.60;1.80;;;;;;;11.56;81.72;100698.27;4993287;56;1138381;-79
2021/06/13 02:45:17;;;;;;;5.47;2.47;;;;;;;11.52;81.75;100695.98;4996918;56;1138574;-77
2021/06/13 02:50:25;;;;;;;3.17;1.72;;;;;;;11.45;81.88;100702.25;5011431;57;1138255;-77
2021/06/13 02:55:58;;;;;;;8.03;1.80;;;;;;;11.39;82.07;100708.02;5011491;57;1138350;-77
2021/06/13 03:01:06;;;;;;;4.10;1.77;;;;;;;11.36;82.53;100707.41;5011818;57;1138486;-77
2021/06/13 03:06:21;;;;;;;8.17;1.90;;;;;;;11.29;83.10;100722.94;5011469;57;1138286;-77
2021/06/13 03:11:29;;;;;;;3.90;1.77;;;;;;;11.28;83.00;100720.77;5011363;57;1138328;-77
2021/06/13 03:16:37;;;;;;;5.53;2.13;;;;;;;11.29;83.30;100725.59;5011349;57;1138264;-77
2021/06/13 03:21:46;;;;;;;6.63;2.10;;;;;;;11.33;83.08;100736.28;5011509;57;1138247;-77
2021/06/13 03:26:55;;;;;;;8.97;3.63;;;;;;;11.37;82.92;100745.69;5011617;57;1138452;-78
2021/06/13 03:32:03;;;;;;;5.37;1.45;;;;;;;11.41;82.81;100751.59;5011086;57;1138551;-77
2021/06/13 03:37:11;;;;;;;3.97;2.10;;;;;;;11.45;82.45;100761.00;5011317;57;1138345;-77
2021/06/13 03:42:18;;;;;;;8.50;2.00;;;;;;;11.46;82.23;100766.15;5011273;57;1138243;-76
2021/06/13 03:47:25;;;;;;;5.63;1.77;;;;;;;11.49;82.09;100771.22;5017435;57;1138541;-77
2021/06/13 03:52:32;;;;;;;6.53;1.60;;;;;;;11.50;81.77;100769.41;5030926;57;1138941;-77
2021/06/13 03:57:42;;;;;;;4.33;1.90;;;;;;;11.52;81.67;100781.58;5030661;58;1138692;-76
2021/06/13 04:02:51;;;;;;;8.90;3.02;;;;;;;11.52;81.34;100782.06;5041188;58;1138997;-78
2021/06/13 04:07:58;;;;;;;5.70;2.05;;;;;;;11.55;81.26;100792.42;5033519;57;1138688;-77
2021/06/13 04:13:06;;;;;;;6.22;1.72;;;;;;;11.57;80.75;100801.95;5030496;57;1138801;-76
2021/06/13 04:18:15;;;;;;;6.00;1.73;;;;;;;11.62;80.78;100809.03;5030589;57;1138751;-77
2021/06/13 04:23:21;;;;;;;2.63;1.50;;;;;;;11.69;80.65;100812.06;5030626;57;1138776;-77
2021/06/13 04:28:29;;;;;;;5.47;2.53;;;;;;;11.73;79.72;100822.80;5030433;58;1138748;-77
2021/06/13 04:33:36;;;;;;;5.67;1.70;;;;;;;11.78;79.81;100831.25;5030483;57;1138819;-77
2021/06/13 04:38:43;;;;;;;13.03;1.80;;;;;;;11.81;79.76;100830.17;5030636;57;1138966;-77
2021/06/13 04:43:50;;;;;;;6.08;2.15;;;;;;;11.88;79.23;100831.39;5044182;58;1140858;-79
2021/06/13 04:48:57;;;;;;;10.23;2.92;;;;;;;11.92;79.28;100834.14;4989700;58;1138850;-77
2021/06/13 04:54:29;;;;;;;6.50;1.80;;;;;;;11.96;78.88;100832.95;5030102;58;1140752;-77
2021/06/13 04:59:35;;;;;;;11.00;1.83;;;;;;;12.08;78.83;100849.21;5030807;57;1138811;-77
2021/06/13 05:04:42;;;;;;;7.53;2.30;;;;;;;12.19;78.57;100853.69;5029589;57;1140945;-77
2021/06/13 05:09:48;;;;;;;12.87;2.07;;;;;;;12.28;78.50;100856.45;5030490;57;1138813;-77
2021/06/13 05:14:53;;;;;;;7.80;2.20;;;;;;;12.42;77.86;100862.45;5030353;57;1141164;-76
2021/06/13 05:19:59;;;;;;;7.97;2.60;;;;;;;12.50;78.17;100858.73;5030422;58;1138748;-77
2021/06/13 05:25:06;;;;;;;7.12;2.20;;;;;;;12.59;77.04;100871.24;5030718;57;1138818;-77
2021/06/13 05:30:13;;;;;;;8.43;2.57;;;;;;;12.69;76.92;100874.34;5030243;58;1138300;-77
2021/06/13 05:35:19;;;;;;;12.03;2.00;;;;;;;12.79;76.39;100873.14;5006259;57;1138497;-77
2021/06/13 05:40:26;;;;;;;9.73;2.80;;;;;;;12.92;77.09;100879.13;5030641;57;1140570;-77
2021/06/13 05:45:34;;;;;;;10.97;2.97;;;;;;;13.06;76.17;100868.70;5003373;57;1138439;-77
2021/06/13 05:50:41;;;;;;;8.40;2.20;;;;;;;13.15;75.53;100890.54;4982287;58;1140915;-77
2021/06/13 05:55:48;;;;;;;7.20;2.37;;;;;;;13.23;76.20;100889.44;4973411;57;1138488;-78
2021/06/13 06:00:54;;;;;;;8.47;2.43;;;;;;;13.33;75.49;100897.48;4973447;58;1138679;-78
2021/06/13 06:06:00;;;;;;;11.25;2.65;;;;;;;13.48;75.52;100890.88;4995197;58;1138706;-78
2021/06/13 06:11:07;;;;;;;7.55;2.80;;;;;;;13.58;74.97;100910.91;4975249;58;1140569;-78
2021/06/13 06:16:12;;;;;;;8.63;2.67;;;;;;;13.68;74.49;100903.35;4938812;58;1138511;-78
2021/06/13 06:21:21;;;;;;;8.70;2.00;;;;;;;13.74;75.12;100907.31;4969493;58;1138470;-78
2021/06/13 06:26:26;;;;;;;5.43;1.73;;;;;;;13.75;74.17;100916.95;4973109;57;1138409;-78
2021/06/13 06:31:33;;;;;;;12.80;2.73;;;;;;;13.86;73.37;100917.39;4947476;58;1138353;-78
2021/06/13 06:36:39;;;;;;;10.70;3.13;;;;;;;13.88;74.15;100926.08;4960929;57;1140425;-78
2021/06/13 06:41:45;;;;;;;9.30;2.17;;;;;;;13.88;73.54;100926.08;4957052;58;1140453;-78
2021/06/13 06:46:52;;;;;;;13.90;2.62;;;;;;;13.94;73.49;100935.70;5024210;57;1138513;-79
2021/06/13 06:52:00;;;;;;;6.60;2.13;;;;;;;14.08;72.48;100927.38;5015915;57;1140539;-78
2021/06/13 06:57:06;;;;;;;12.13;2.90;;;;;;;14.25;71.04;100941.05;5030100;57;1138448;-79
2021/06/13 07:02:13;;;;;;;8.40;2.97;;;;;;;14.31;70.95;100935.20;5030672;57;1140423;-78
2021/06/13 07:07:19;;;;;;;12.17;2.40;;;;;;;14.44;71.53;100942.52;5030617;57;1138327;-79
2021/06/13 07:12:25;;;;;;;7.70;2.50;;;;;;;14.65;69.77;100947.79;5030630;57;1140895;-78
2021/06/13 07:17:31;;;;;;;7.33;2.37;;;;;;;14.52;70.63;100948.48;5030858;57;1138488;-78
2021/06/13 07:22:38;;;;;;;9.70;2.93;;;;;;;14.46;70.61;100969.00;5026574;57;1138410;-80
2021/06/13 07:27:44;;;;;;;9.80;2.60;;;;;;;14.44;71.00;100975.78;4955829;58;1138508;-81
2021/06/13 07:32:51;;;;;;;4.73;1.87;;;;;;;14.60;71.68;100973.47;4950256;58;1138757;-81
2021/06/13 07:38:00;;;;;;;7.67;2.58;;;;;;;14.95;69.65;100981.03;4950075;59;1138876;-83
2021/06/13 07:43:05;;;;;;;4.75;2.02;;;;;;;15.22;68.74;100972.88;4950306;59;1138805;-80
2021/06/13 07:48:12;;;;;;;3.98;1.75;;;;;;;15.24;67.43;100984.25;4950056;58;1138834;-80
2021/06/13 07:53:18;;;;;;;5.20;2.37;;;;;;;15.30;66.44;100977.02;4947062;58;1138784;-79
2021/06/13 07:58:24;;;;;;;5.70;2.57;;;;;;;15.46;66.36;100979.98;4941296;57;1138841;-79
2021/06/13 08:03:30;;;;;;;9.63;2.30;;;;;;;15.71;65.43;100983.97;4985963;58;1138771;-79
2021/06/13 08:08:36;;;;;;;7.60;2.37;;;;;;;15.98;66.63;100995.25;4830371;59;1139076;-80
2021/06/13 08:13:42;;;;;;;5.53;1.87;;;;;;;16.07;64.73;101003.23;4827762;59;1138838;-79
2021/06/13 08:18:48;;;;;;;7.30;1.83;;;;;;;15.73;63.46;101024.19;4829705;59;1138934;-82
2021/06/13 08:23:54;;;;;;;8.23;1.83;;;;;;;15.39;65.37;101030.36;4829339;59;1139063;-83
2021/06/13 08:29:02;;;;;;;10.68;2.22;;;;;;;15.39;66.15;101050.34;4913926;59;1139059;-82
2021/06/13 08:34:08;;;;;;;8.38;2.30;;;;;;;15.54;64.72;101049.47;4791360;60;1140887;-83
2021/06/13 08:39:15;;;;;;;20.53;3.33;;;;;;;15.58;65.63;101042.91;4886203;58;1138800;-83
2021/06/13 08:44:23;;;;;;;15.27;2.70;;;;;;;15.75;64.46;101051.53;4880691;58;1140877;-83
2021/06/13 08:49:29;;;;;;;9.17;2.03;;;;;;;16.03;66.60;101043.70;4941214;58;1140815;-82
2021/06/13 08:54:35;;;;;;;11.57;2.40;;;;;;;16.33;63.99;101050.69;4806418;60;1138801;-83
2021/06/13 08:59:45;;;;;;;6.65;2.10;;;;;;;16.33;63.41;101054.20;5007957;58;1140929;-82
2021/06/13 09:04:51;;;;;;;6.83;1.67;;;;;;;16.40;62.46;101055.79;5009696;57;1138820;-82
2021/06/13 09:09:57;;;;;;;5.07;2.37;;;;;;;16.12;62.30;101070.86;4942274;58;1148919;-83
2021/06/13 09:15:04;;;;;;;10.32;3.10;;;;;;;16.01;61.95;101065.19;4951294;58;1139081;-83
2021/06/13 09:20:23;;;;;;;5.83;2.10;;;;;;;16.37;62.93;101054.73;4977183;57;1140869;-82
2021/06/13 09:25:29;;;;;;;8.27;2.47;;;;;;;16.37;61.08;101063.59;4989612;57;1138686;-83
2021/06/13 09:30:42;;;;;;;8.97;2.17;;;;;;;16.61;63.18;101055.61;4973773;58;1138618;-82
2021/06/13 09:35:50;;;;;;;6.33;1.93;;;;;;;17.01;62.26;101072.72;4976596;58;1138312;-82
2021/06/13 09:41:10;;;;;;;10.97;1.93;;;;;;;17.08;61.98;101073.34;4975517;57;1138818;-82
2021/06/13 09:46:23;;;;;;;11.30;2.13;;;;;;;17.21;59.42;101087.20;4975438;57;1140553;-83
2021/06/13 09:51:36;;;;;;;4.78;1.57;;;;;;;17.20;58.93;101076.16;4974999;58;1140398;-82
2021/06/13 09:56:40;;;;;;;4.00;1.57;;;;;;;16.98;57.24;101088.55;4974185;57;1138649;-82
2021/06/13 10:01:53;;;;;;;4.97;1.77;;;;;;;17.03;58.68;101096.13;4971837;57;1138542;-82
2021/06/13 10:07:21;;;;;;;7.40;2.65;;;;;;;17.33;62.08;101096.35;4970425;57;1138624;-83
2021/06/13 10:12:27;;;;;;;6.43;2.00;;;;;;;17.67;57.82;101100.14;4969499;58;1138832;-82
2021/06/13 10:17:34;;;;;;;7.17;2.10;;;;;;;17.78;56.12;101103.08;4961439;57;1138708;-83
2021/06/13 10:22:41;;;;;;;7.40;2.10;;;;;;;18.01;57.55;101101.66;4964802;58;1138574;-83
2021/06/13 10:27:47;;;;;;;6.23;1.70;;;;;;;18.22;59.46;101110.20;4972158;58;1138709;-82
2021/06/13 10:32:53;;;;;;;12.67;3.17;;;;;;;17.81;55.69;101126.38;4968553;58;1138608;-82
2021/06/13 10:38:01;;;;;;;6.00;1.40;;;;;;;17.42;57.27;101135.06;4971587;57;1140697;-83
2021/06/13 10:43:07;;;;;;;5.33;1.60;;;;;;;17.28;60.05;101126.69;4973694;57;1138718;-82
2021/06/13 10:48:13;;;;;;;8.17;1.87;;;;;;;17.54;59.20;101145.09;4972278;58;1138549;-81
2021/06/13 10:53:23;;;;;;;8.33;2.03;;;;;;;17.58;58.66;101141.11;4974728;58;1138572;-81
2021/06/13 10:58:50;;;;;;;12.50;1.93;;;;;;;17.56;59.38;101145.80;4968594;58;1138323;-81
2021/06/13 11:04:05;;;;;;;7.03;1.97;;;;;;;17.83;59.08;101147.14;4968740;57;1140967;-82
2021/06/13 11:09:14;;;;;;;5.35;1.65;;;;;;;18.00;58.06;101152.17;4963298;57;1138871;-81
2021/06/13 11:14:26;;;;;;;14.57;2.60;;;;;;;18.07;56.61;101155.91;4995803;58;1138865;-80
2021/06/13 11:19:39;;;;;;;10.83;1.90;;;;;;;18.25;58.49;101151.41;5060761;57;1140899;-82
2021/06/13 11:24:53;;;;;;;2.10;1.30;;;;;;;18.43;56.27;101156.76;5112098;57;1140951;-82
2021/06/13 11:30:00;;;;;;;7.10;1.73;;;;;;;18.41;54.85;101145.85;5113035;57;1138778;-83
2021/06/13 11:35:29;;;;;;;6.45;1.67;;;;;;;18.05;55.27;101166.41;5112590;57;1138824;-80
2021/06/13 11:40:39;;;;;;;6.13;1.47;;;;;;;17.89;57.23;101174.61;5112610;57;1138631;-80
2021/06/13 11:46:06;;;;;;;8.98;1.62;;;;;;;18.13;55.62;101170.53;5069259;57;1138569;-81
2021/06/13 11:51:19;;;;;;;6.67;1.72;;;;;;;18.59;55.32;101190.42;5112833;57;1138468;-80
2021/06/13 11:56:44;;;;;;;9.05;2.10;;;;;;;18.87;55.11;101187.12;5112270;57;1138681;-78
2021/06/13 12:01:54;;;;;;;7.22;1.55;;;;;;;18.87;54.71;101200.52;5116175;57;1138583;-79
2021/06/13 12:07:22;;;;;;;5.80;1.17;;;;;;;18.87;54.71;101200.52;5081578;57;1138567;-80
2021/06/13 12:12:22;;;;;;;10.73;1.97;;;;;;;18.72;52.87;101205.25;5068625;57;1138409;-80
2021/06/13 12:17:29;;;;;;;9.50;2.20;;;;;;;18.28;54.97;101218.55;4919086;59;1140391;-78
2021/06/13 12:22:56;;;;;;;6.13;1.53;;;;;;;18.11;56.16;101214.02;4901446;59;1138446;-80
2021/06/13 12:27:59;;;;;;;5.17;2.03;;;;;;;18.18;55.96;101215.92;4908357;58;1138385;-82
2021/06/13 12:33:07;;;;;;;6.47;1.30;;;;;;;18.01;55.25;101221.27;4907983;58;1138614;-81
2021/06/13 12:38:17;;;;;;;5.07;1.73;;;;;;;17.91;56.15;101230.17;4908453;58;1138353;-81
2021/06/13 12:43:38;;;;;;;6.40;1.87;;;;;;;17.68;57.73;101242.27;4907820;58;1138665;-82
2021/06/13 12:48:45;;;;;;;4.67;1.50;;;;;;;17.54;56.70;101238.70;4916757;57;1138518;-81
2021/06/13 12:53:54;;;;;;;5.57;1.57;;;;;;;17.37;57.46;101238.97;4987487;58;1139230;-82
2021/06/13 12:59:00;;;;;;;10.73;2.03;;;;;;;17.39;57.68;101239.67;4988011;58;1138858;-83
2021/06/13 13:04:06;;;;;;;7.40;1.37;;;;;;;17.62;57.37;101232.61;4987141;58;1140885;-82
2021/06/13 13:09:12;;;;;;;9.35;2.08;;;;;;;17.66;56.86;101234.89;4992937;57;1138747;-81
2021/06/13 13:14:20;;;;;;;5.57;1.60;;;;;;;17.54;57.61;101249.41;4998863;58;1138808;-82
2021/06/13 13:19:32;;;;;;;7.50;1.50;;;;;;;17.31;56.28;101240.87;4999065;58;1138728;-81
2021/06/13 13:24:37;;;;;;;10.67;1.70;;;;;;;17.25;57.50;101244.14;4998432;58;1138813;-80
2021/06/13 13:29:47;;;;;;;7.60;1.80;;;;;;;17.49;57.53;101244.98;5060371;57;1140804;-81
2021/06/13 13:34:57;;;;;;;8.63;1.10;;;;;;;17.84;57.68;101245.16;5080497;57;1139049;-82
2021/06/13 13:40:12;;;;;;;8.28;1.66;;;;;;;17.97;56.27;101243.47;4942432;58;1138711;-80
2021/06/13 13:45:26;;;;;;;7.12;1.80;;;;;;;18.31;55.85;101246.86;4954689;58;1138838;-82
2021/06/13 13:50:51;;;;;;;6.95;1.70;;;;;;;18.59;55.38;101241.33;4908601;58;1138836;-83
2021/06/13 13:56:01;;;;;;;6.40;1.30;;;;;;;18.49;54.78;101253.89;4968536;58;1138476;-82
2021/06/13 14:01:07;;;;;;;6.67;1.40;;;;;;;18.31;55.00;101246.86;4983658;58;1138555;-81
2021/06/13 14:06:18;;;;;;;5.47;1.52;;;;;;;18.43;53.91;101250.51;5056105;57;1138428;-80
2021/06/13 14:11:24;;;;;;;7.30;2.22;;;;;;;18.49;54.19;101246.36;4985881;57;1138731;-80
2021/06/13 14:16:30;;;;;;;6.35;2.60;;;;;;;18.74;54.90;101242.96;4993962;57;1138323;-82
2021/06/13 14:21:36;;;;;;;3.30;1.40;;;;;;;18.88;53.16;101247.77;4947639;57;1138269;-81
2021/06/13 14:26:41;;;;;;;12.00;2.00;;;;;;;18.58;52.97;101261.07;4951519;58;1138476;-81
2021/06/13 14:31:49;;;;;;;3.83;1.90;;;;;;;18.31;53.08;101276.32;5000414;57;1140381;-79
2021/06/13 14:36:55;;;;;;;9.43;1.77;;;;;;;18.08;52.84;101271.86;4975255;57;1138214;-80
2021/06/13 14:42:01;;;;;;;7.37;1.40;;;;;;;18.15;53.11;101274.30;4975239;57;1138505;-81
2021/06/13 14:47:07;;;;;;;7.87;1.50;;;;;;;18.49;52.77;101266.45;5017671;57;1138436;-81
2021/06/13 14:52:15;;;;;;;5.95;1.60;;;;;;;18.55;52.69;101281.92;4952560;58;1138532;-80
2021/06/13 14:57:22;;;;;;;4.75;1.85;;;;;;;18.42;53.11;101282.30;4937251;58;1138289;-80
2021/06/13 15:02:28;;;;;;;7.47;1.67;;;;;;;18.34;54.89;101278.67;4937098;59;1138359;-82
2021/06/13 15:07:34;;;;;;;5.90;1.90;;;;;;;18.67;53.75;101266.49;4916996;58;1138336;-81
2021/06/13 15:12:40;;;;;;;5.33;1.82;;;;;;;18.86;54.10;101275.23;4823044;60;1138820;-83
2021/06/13 15:17:45;;;;;;;5.15;1.90;;;;;;;18.97;52.49;101266.94;4932789;59;1139047;-81
2021/06/13 15:22:51;;;;;;;9.78;1.75;;;;;;;18.97;52.49;101266.94;4822971;60;1138737;-81
2021/06/13 15:27:57;;;;;;;4.45;1.35;;;;;;;19.15;53.02;101271.43;4839955;60;1139291;-79
2021/06/13 15:33:03;;;;;;;8.90;1.95;;;;;;;19.14;49.27;101269.74;4823312;60;1138784;-81
2021/06/13 15:38:09;;;;;;;7.90;2.02;;;;;;;18.84;51.07;101275.88;4823412;60;1138792;-81
2021/06/13 15:43:17;;;;;;;5.33;1.80;;;;;;;18.75;51.41;101277.30;4929217;59;1139108;-83
2021/06/13 15:48:22;;;;;;;7.33;2.27;;;;;;;18.86;51.59;101276.56;4819708;60;1138707;-84
2021/06/13 15:53:28;;;;;;;4.75;1.70;;;;;;;18.97;51.86;101270.11;4928445;59;1138733;-82
2021/06/13 15:58:35;;;;;;;4.87;1.60;;;;;;;19.10;50.34;101271.05;4820524;60;1138763;-82
2021/06/13 16:03:41;;;;;;;4.12;1.72;;;;;;;19.12;50.28;101273.92;4933435;58;1138818;-84
2021/06/13 16:08:48;;;;;;;5.50;2.00;;;;;;;19.10;50.99;101279.94;4913667;58;1138787;-81
2021/06/13 16:13:54;;;;;;;4.97;1.70;;;;;;;19.00;51.31;101276.52;4904318;58;1138791;-82
2021/06/13 16:18:59;;;;;;;11.85;1.62;;;;;;;19.07;50.04;101272.72;4950453;58;1138761;-80
2021/06/13 16:24:05;;;;;;;13.60;2.40;;;;;;;19.08;49.94;101290.00;4859313;58;1140873;-82
2021/06/13 16:29:12;;;;;;;2.52;1.37;;;;;;;18.94;50.45;101286.00;4873175;59;1140937;-83
2021/06/13 16:34:17;;;;;;;5.00;1.32;;;;;;;19.07;50.70;101282.11;4872847;58;1138427;-84
2021/06/13 16:39:24;;;;;;;5.95;1.77;;;;;;;19.06;48.85;101284.44;4874968;59;1138551;-83
2021/06/13 16:44:31;;;;;;;3.98;1.10;;;;;;;19.03;48.64;101279.39;4874151;59;1138795;-83
2021/06/13 16:49:37;;;;;;;3.45;1.20;;;;;;;18.99;48.04;101292.25;4885383;58;1138759;-84
2021/06/13 16:54:43;;;;;;;3.22;1.80;;;;;;;18.94;47.36;101302.62;4913613;58;1139080;-84
2021/06/13 16:59:49;;;;;;;8.43;2.52;;;;;;;18.92;48.13;101316.17;4913333;59;1138796;-83
2021/06/13 17:04:56;;;;;;;10.05;3.30;;;;;;;18.87;49.21;101319.80;4913556;59;1138799;-80
2021/06/13 17:10:03;;;;;;;4.70;2.87;;;;;;;18.70;48.73;101313.09;4919052;58;1141242;-82
2021/06/13 17:15:09;;;;;;;5.85;2.17;;;;;;;18.63;48.69;101319.56;4872425;58;1138788;-82
2021/06/13 17:20:16;;;;;;;5.35;1.35;;;;;;;18.57;49.46;101324.15;4993601;56;1138840;-81
2021/06/13 17:25:29;;;;;;;4.75;1.40;;;;;;;18.53;48.44;101323.59;4993161;58;1138781;-80
2021/06/13 17:30:34;;;;;;;5.47;2.08;;;;;;;18.42;48.21;101331.85;4992910;56;1138711;-79
2021/06/13 17:35:52;;;;;;;11.15;5.12;;;;;;;18.34;49.21;101342.45;4993144;56;1138680;-79
2021/06/13 17:40:58;;;;;;;17.10;7.03;;;;;;;18.35;49.65;101340.12;4991833;56;1140766;-78
2021/06/13 17:46:05;;;;;;;18.13;14.40;;;;;;;18.25;49.48;101343.36;4991674;57;1140847;-78
2021/06/13 17:51:11;;;;;;;18.52;16.62;;;;;;;18.17;50.33;101346.80;4925377;57;1143167;-80
2021/06/13 17:56:17;;;;;;;13.53;5.37;;;;;;;18.12;50.42;101347.72;4913109;58;1143030;-80
2021/06/13 18:01:23;;;;;;;13.90;9.17;;;;;;;18.04;50.63;101340.06;4913125;58;1140718;-80
2021/06/13 18:06:29;;;;;;;12.07;4.60;;;;;;;17.99;51.36;101343.70;4913083;58;1140421;-80
2021/06/13 18:11:36;;;;;;;23.60;14.93;;;;;;;17.94;51.98;101345.47;4887275;58;1140606;-80
2021/06/13 18:16:43;;;;;;;64.97;31.93;;;;;;;17.97;52.16;101347.86;4900850;58;1142484;-80
2021/06/13 18:21:49;;;;;;;46.50;27.97;;;;;;;17.96;52.61;101348.00;4901307;58;1143039;-81
2021/06/13 18:26:55;;;;;;;38.30;21.27;;;;;;;17.88;52.44;101353.58;4907961;58;1142881;-79
2021/06/13 18:32:01;;;;;;;8.07;4.60;;;;;;;17.77;52.37;101363.13;4944102;58;1143120;-80
2021/06/13 18:37:08;;;;;;;8.37;6.00;;;;;;;17.60;52.67;101365.16;4933481;58;1138807;-78
2021/06/13 18:42:14;;;;;;;32.15;19.70;;;;;;;17.46;52.94;101365.61;4930313;58;1138854;-80
2021/06/13 18:47:20;;;;;;;22.48;14.98;;;;;;;17.40;53.27;101367.54;4916163;58;1142866;-79
2021/06/13 18:52:25;;;;;;;15.35;5.30;;;;;;;17.29;53.32;101378.36;4942858;58;1142455;-81
2021/06/13 18:57:31;;;;;;;7.70;4.23;;;;;;;17.18;53.32;101386.04;4923778;58;1140482;-80
2021/06/13 19:02:37;;;;;;;12.73;3.67;;;;;;;17.06;53.53;101388.50;4920121;58;1138296;-79
2021/06/13 19:07:43;;;;;;;6.07;2.73;;;;;;;16.97;53.79;101396.00;4916120;58;1140398;-78
2021/06/13 19:12:49;;;;;;;10.67;3.40;;;;;;;16.83;54.13;101406.11;4970698;58;1138439;-79
2021/06/13 19:17:54;;;;;;;6.03;3.20;;;;;;;16.78;54.43;101410.20;4914061;58;1140621;-78
2021/06/13 19:23:01;;;;;;;5.53;3.53;;;;;;;16.74;54.62;101413.63;4920712;58;1138508;-78
2021/06/13 19:28:07;;;;;;;12.33;4.07;;;;;;;16.64;54.81;101419.45;4917035;58;1143601;-78
2021/06/13 19:33:14;;;;;;;5.67;4.25;;;;;;;16.63;55.13;101428.92;4921348;58;1141054;-77
2021/06/13 19:38:20;;;;;;;11.78;5.08;;;;;;;16.66;55.50;101430.81;4926618;58;1138786;-78
2021/06/13 19:43:26;;;;;;;13.20;4.27;;;;;;;16.60;55.53;101427.34;4865458;59;1140945;-78
2021/06/13 19:48:36;;;;;;;6.60;3.57;;;;;;;16.48;55.91;101436.44;4860384;59;1140919;-77
2021/06/13 19:53:48;;;;;;;9.80;3.43;;;;;;;16.34;56.30;101441.65;4927424;58;1139095;-76
2021/06/13 19:58:56;;;;;;;6.80;3.08;;;;;;;16.26;56.87;101449.95;4865974;58;1139056;-77
2021/06/13 20:04:02;;;;;;;7.97;3.37;;;;;;;16.07;57.08;101451.53;4845748;58;1138814;-76
2021/06/13 20:09:08;;;;;;;6.00;3.40;;;;;;;15.89;57.53;101453.09;4849107;57;1142529;-77
2021/06/13 20:14:14;;;;;;;9.58;3.08;;;;;;;15.76;58.09;101455.97;4899069;57;1138925;-76
2021/06/13 20:19:20;;;;;;;9.33;3.83;;;;;;;15.76;58.34;101454.63;4817784;57;1139043;-78
2021/06/13 20:24:26;;;;;;;9.50;4.10;;;;;;;15.78;58.73;101446.02;4858106;58;1138899;-79
2021/06/13 20:29:32;;;;;;;6.97;4.37;;;;;;;15.88;59.05;101451.92;4865867;58;1138952;-78
2021/06/13 20:34:39;;;;;;;12.37;7.63;;;;;;;15.91;59.07;101449.81;4858966;57;1138890;-77
2021/06/13 20:39:45;;;;;;;16.03;9.07;;;;;;;15.94;59.27;101457.56;4822249;58;1141022;-76
2021/06/13 20:44:54;;;;;;;11.35;6.95;;;;;;;15.94;59.36;101458.05;4877195;58;1141087;-76
2021/06/13 20:50:00;;;;;;;12.33;6.17;;;;;;;15.95;59.70;101455.75;4896431;59;1140770;-78
2021/06/13 20:55:08;;;;;;;10.77;5.87;;;;;;;15.96;59.62;101466.28;4910152;58;1141186;-78
2021/06/13 21:00:19;;;;;;;11.12;5.05;;;;;;;15.93;59.59;101469.21;4973207;58;1140942;-76
2021/06/13 21:05:24;;;;;;;4.30;3.37;;;;;;;15.81;59.50;101467.10;4996054;57;1141139;-79
2021/06/13 21:10:30;;;;;;;7.47;3.73;;;;;;;15.54;59.24;101469.39;4906432;58;1138445;-78
2021/06/13 21:15:35;;;;;;;6.23;4.20;;;;;;;15.42;59.89;101470.42;4814327;60;1138605;-77
2021/06/13 21:20:43;;;;;;;9.60;4.50;;;;;;;15.30;60.06;101467.41;4897018;59;1138500;-77
2021/06/13 21:25:49;;;;;;;5.30;4.17;;;;;;;15.29;60.62;101464.37;4946856;57;1138835;-78
2021/06/13 21:30:55;;;;;;;8.27;5.10;;;;;;;15.29;60.84;101469.22;4911236;58;1138918;-77
2021/06/13 21:36:00;;;;;;;9.43;4.17;;;;;;;15.30;60.90;101471.41;4945519;58;1138922;-76
2021/06/13 21:41:06;;;;;;;13.80;6.33;;;;;;;15.26;60.86;101476.16;4923945;58;1151071;-77
2021/06/13 21:46:13;;;;;;;11.04;6.86;;;;;;;15.23;61.08;101476.89;4951352;58;1140904;-76
2021/06/13 21:51:19;;;;;;;8.40;5.20;;;;;;;15.22;61.09;101473.38;4886389;58;1141209;-78
2021/06/13 21:56:26;;;;;;;10.80;6.00;;;;;;;15.23;61.17;101481.73;4954070;58;1138837;-78
2021/06/13 22:01:33;;;;;;;20.80;5.70;;;;;;;15.23;61.35;101476.89;4896834;59;1141016;-77
2021/06/13 22:06:39;;;;;;;8.20;4.93;;;;;;;15.17;61.17;101473.39;4885737;59;1141186;-79
2021/06/13 22:11:45;;;;;;;16.00;6.70;;;;;;;15.12;61.53;101470.60;4901301;59;1138834;-77
2021/06/13 22:16:52;;;;;;;11.47;5.97;;;;;;;15.05;61.54;101481.41;4848766;58;1141087;-78
2021/06/13 22:21:57;;;;;;;13.73;5.83;;;;;;;14.99;61.61;101481.90;4842428;59;1140889;-77
2021/06/13 22:27:03;;;;;;;12.03;6.00;;;;;;;14.90;61.77;101489.31;4942748;59;1140982;-78
2021/06/13 22:32:10;;;;;;;12.80;4.90;;;;;;;14.80;61.82;101490.18;4801775;60;1146239;-79
2021/06/13 22:37:17;;;;;;;6.55;4.53;;;;;;;14.71;61.93;101489.08;5012237;57;1140865;-79
2021/06/13 22:42:23;;;;;;;8.40;4.62;;;;;;;14.63;62.12;101491.03;5012265;57;1138902;-79
2021/06/13 22:47:29;;;;;;;8.60;4.47;;;;;;;14.42;62.10;101502.88;5012867;57;1138298;-77
2021/06/13 22:52:35;;;;;;;14.47;5.40;;;;;;;14.34;62.54;101490.63;5012412;57;1138289;-78
2021/06/13 22:57:42;;;;;;;13.40;5.43;;;;;;;14.37;62.74;101498.83;4998818;57;1140536;-79
2021/06/13 23:02:50;;;;;;;13.73;5.10;;;;;;;14.40;62.99;101494.64;5011881;57;1140754;-79
2021/06/13 23:07:56;;;;;;;13.43;5.13;;;;;;;14.42;63.19;101494.89;5011941;57;1140619;-79
2021/06/13 23:13:03;;;;;;;14.27;6.00;;;;;;;14.35;63.21;101491.00;5012132;57;1140729;-80
2021/06/13 23:18:09;;;;;;;11.63;5.70;;;;;;;14.29;63.18;101490.13;5026217;57;1141498;-77